sensor_id;sensor_type;location;lat;lon;timestamp;pressure;altitude;pressure_sealevel;temperature;humidity
61119;BME280;51448;51.660;5.824;2023-12-28T00:00:51;100762.69;;;10.06;98.98
61119;BME280;51448;51.660;5.824;2023-12-28T00:03:19;100766.16;;;10.08;99.53
61119;BME280;51448;51.660;5.824;2023-12-28T00:05:46;100753.03;;;10.06;99.32
61119;BME280;51448;51.660;5.824;2023-12-28T00:08:14;100762.66;;;10.07;100.00
61119;BME280;51448;51.660;5.824;2023-12-28T00:10:42;100766.16;;;10.08;100.00
61119;BME280;51448;51.660;5.824;2023-12-28T00:13:09;100762.72;;;10.04;100.00
61119;BME280;51448;51.660;5.824;2023-12-28T00:15:37;100752.31;;;10.01;100.00
61119;BME280;51448;51.660;5.824;2023-12-28T00:18:04;100771.59;;;10.00;100.00
61119;BME280;51448;51.660;5.824;2023-12-28T00:20:32;100769.84;;;10.01;100.00
61119;BME280;51448;51.660;5.824;2023-12-28T00:23:00;100776.81;;;10.02;100.00
61119;BME280;51448;51.660;5.824;2023-12-28T00:25:27;100756.66;;;10.02;100.00
61119;BME280;51448;51.660;5.824;2023-12-28T00:27:55;100769.72;;;10.05;100.00
61119;BME280;51448;51.660;5.824;2023-12-28T00:30:23;100760.94;;;10.06;100.00
61119;BME280;51448;51.660;5.824;2023-12-28T00:32:50;100778.47;;;10.06;100.00
61119;BME280;51448;51.660;5.824;2023-12-28T00:35:19;100784.56;;;10.06;100.00
61119;BME280;51448;51.660;5.824;2023-12-28T00:37:47;100792.53;;;10.05;100.00
61119;BME280;51448;51.660;5.824;2023-12-28T00:40:15;100795.19;;;10.03;100.00
61119;BME280;51448;51.660;5.824;2023-12-28T00:42:43;100788.19;;;10.02;100.00
61119;BME280;51448;51.660;5.824;2023-12-28T00:45:10;100789.94;;;10.03;100.00
61119;BME280;51448;51.660;5.824;2023-12-28T00:47:38;100784.75;;;10.00;100.00
61119;BME280;51448;51.660;5.824;2023-12-28T00:50:06;100798.75;;;10.01;100.00
61119;BME280;51448;51.660;5.824;2023-12-28T00:52:34;100800.50;;;10.00;100.00
61119;BME280;51448;51.660;5.824;2023-12-28T00:55:02;100794.44;;;9.98;100.00
61119;BME280;51448;51.660;5.824;2023-12-28T00:57:31;100815.41;;;10.00;100.00
61119;BME280;51448;51.660;5.824;2023-12-28T00:59:58;100819.72;;;10.02;100.00
61119;BME280;51448;51.660;5.824;2023-12-28T01:02:27;100818.00;;;10.01;100.00
61119;BME280;51448;51.660;5.824;2023-12-28T01:04:54;100813.59;;;10.02;100.00
61119;BME280;51448;51.660;5.824;2023-12-28T01:07:22;100804.06;;;9.99;100.00
61119;BME280;51448;51.660;5.824;2023-12-28T01:09:51;100812.81;;;9.98;100.00
61119;BME280;51448;51.660;5.824;2023-12-28T01:12:18;100818.91;;;10.00;100.00
61119;BME280;51448;51.660;5.824;2023-12-28T01:14:46;100816.38;;;9.97;100.00
61119;BME280;51448;51.660;5.824;2023-12-28T01:17:14;100826.78;;;10.00;100.00
61119;BME280;51448;51.660;5.824;2023-12-28T01:19:42;100825.03;;;10.01;100.00
61119;BME280;51448;51.660;5.824;2023-12-28T01:22:11;100818.88;;;10.02;100.00
61119;BME280;51448;51.660;5.824;2023-12-28T01:24:38;100814.41;;;10.05;100.00
61119;BME280;51448;51.660;5.824;2023-12-28T01:27:06;100831.88;;;10.06;100.00
61119;BME280;51448;51.660;5.824;2023-12-28T01:29:34;100834.50;;;10.06;100.00
61119;BME280;51448;51.660;5.824;2023-12-28T01:32:03;100837.91;;;10.10;100.00
61119;BME280;51448;51.660;5.824;2023-12-28T01:34:31;100828.09;;;10.17;100.00
61119;BME280;51448;51.660;5.824;2023-12-28T01:36:59;100837.72;;;10.18;100.00
61119;BME280;51448;51.660;5.824;2023-12-28T01:39:26;100847.31;;;10.19;100.00
61119;BME280;51448;51.660;5.824;2023-12-28T01:41:54;100839.38;;;10.22;100.00
61119;BME280;51448;51.660;5.824;2023-12-28T01:44:22;100846.31;;;10.24;100.00
61119;BME280;51448;51.660;5.824;2023-12-28T01:46:50;100845.34;;;10.27;100.00
61119;BME280;51448;51.660;5.824;2023-12-28T01:49:17;100842.59;;;10.33;100.00
61119;BME280;51448;51.660;5.824;2023-12-28T01:51:48;100850.47;;;10.33;100.00
61119;BME280;51448;51.660;5.824;2023-12-28T01:54:16;100848.78;;;10.32;100.00
61119;BME280;51448;51.660;5.824;2023-12-28T01:56:44;100849.47;;;10.39;100.00
61119;BME280;51448;51.660;5.824;2023-12-28T01:59:13;100850.38;;;10.38;100.00
61119;BME280;51448;51.660;5.824;2023-12-28T02:01:41;100841.72;;;10.34;100.00
61119;BME280;51448;51.660;5.824;2023-12-28T02:04:09;100850.41;;;10.36;100.00
61119;BME280;51448;51.660;5.824;2023-12-28T02:06:37;100856.50;;;10.38;100.00
61119;BME280;51448;51.660;5.824;2023-12-28T02:09:05;100852.94;;;10.39;100.00
61119;BME280;51448;51.660;5.824;2023-12-28T02:11:38;100853.00;;;10.38;100.00
61119;BME280;51448;51.660;5.824;2023-12-28T02:14:06;100852.22;;;10.34;100.00
61119;BME280;51448;51.660;5.824;2023-12-28T02:16:36;100846.09;;;10.34;100.00
61119;BME280;51448;51.660;5.824;2023-12-28T02:22:27;100851.38;;;10.34;100.00
61119;BME280;51448;51.660;5.824;2023-12-28T02:25:10;100850.47;;;10.33;100.00
61119;BME280;51448;51.660;5.824;2023-12-28T02:27:44;100862.75;;;10.34;100.00
61119;BME280;51448;51.660;5.824;2023-12-28T02:30:17;100873.31;;;10.31;100.00
61119;BME280;51448;51.660;5.824;2023-12-28T02:35:28;100854.97;;;10.30;100.00
61119;BME280;51448;51.660;5.824;2023-12-28T02:38:05;100850.59;;;10.28;100.00
61119;BME280;51448;51.660;5.824;2023-12-28T02:40:38;100850.59;;;10.30;100.00
61119;BME280;51448;51.660;5.824;2023-12-28T02:43:08;100845.34;;;10.27;100.00
61119;BME280;51448;51.660;5.824;2023-12-28T02:45:37;100843.66;;;10.26;100.00
61119;BME280;51448;51.660;5.824;2023-12-28T02:48:07;100837.53;;;10.25;100.00
61119;BME280;51448;51.660;5.824;2023-12-28T02:50:37;100850.72;;;10.24;100.00
61119;BME280;51448;51.660;5.824;2023-12-28T02:53:05;100852.50;;;10.22;100.00
61119;BME280;51448;51.660;5.824;2023-12-28T02:55:32;100838.59;;;10.18;100.00
61119;BME280;51448;51.660;5.824;2023-12-28T02:58:00;100843.00;;;10.18;100.00
61119;BME280;51448;51.660;5.824;2023-12-28T03:00:29;100836.91;;;10.16;100.00
61119;BME280;51448;51.660;5.824;2023-12-28T03:02:57;100839.56;;;10.14;100.00
61119;BME280;51448;51.660;5.824;2023-12-28T03:05:25;100835.25;;;10.12;100.00
61119;BME280;51448;51.660;5.824;2023-12-28T03:07:52;100837.06;;;10.10;100.00
61119;BME280;51448;51.660;5.824;2023-12-28T03:10:23;100837.78;;;10.15;100.00
61119;BME280;51448;51.660;5.824;2023-12-28T03:12:50;100822.09;;;10.13;100.00
61119;BME280;51448;51.660;5.824;2023-12-28T03:15:18;100844.03;;;10.11;100.00
61119;BME280;51448;51.660;5.824;2023-12-28T03:17:46;100842.31;;;10.10;100.00
61119;BME280;51448;51.660;5.824;2023-12-28T03:20:14;100848.41;;;10.12;100.00
61119;BME280;51448;51.660;5.824;2023-12-28T03:22:44;100841.41;;;10.11;100.00
61119;BME280;51448;51.660;5.824;2023-12-28T03:25:12;100827.41;;;10.10;100.00
61119;BME280;51448;51.660;5.824;2023-12-28T03:27:39;100825.69;;;10.09;100.00
61119;BME280;51448;51.660;5.824;2023-12-28T03:30:08;100823.94;;;10.10;100.00
61119;BME280;51448;51.660;5.824;2023-12-28T03:32:38;100824.91;;;10.05;100.00
61119;BME280;51448;51.660;5.824;2023-12-28T03:35:06;100829.34;;;10.03;100.00
61119;BME280;51448;51.660;5.824;2023-12-28T03:37:34;100833.75;;;10.03;100.00
61119;BME280;51448;51.660;5.824;2023-12-28T03:40:02;100837.28;;;10.00;100.00
61119;BME280;51448;51.660;5.824;2023-12-28T03:42:30;100837.38;;;9.97;100.00
61119;BME280;51448;51.660;5.824;2023-12-28T03:44:58;100840.88;;;9.98;100.00
61119;BME280;51448;51.660;5.824;2023-12-28T03:47:26;100851.41;;;9.96;100.00
61119;BME280;51448;51.660;5.824;2023-12-28T03:49:53;100853.16;;;9.97;100.00
61119;BME280;51448;51.660;5.824;2023-12-28T03:52:27;100842.59;;;9.99;100.00
61119;BME280;51448;51.660;5.824;2023-12-28T03:54:57;100839.03;;;10.01;100.00
61119;BME280;51448;51.660;5.824;2023-12-28T03:57:25;100831.16;;;10.01;100.00
61119;BME280;51448;51.660;5.824;2023-12-28T03:59:54;100836.41;;;10.01;100.00
61119;BME280;51448;51.660;5.824;2023-12-28T04:02:23;100829.31;;;10.05;100.00
61119;BME280;51448;51.660;5.824;2023-12-28T04:04:52;100835.47;;;10.02;100.00
61119;BME280;51448;51.660;5.824;2023-12-28T04:07:19;100835.41;;;10.05;100.00
61119;BME280;51448;51.660;5.824;2023-12-28T04:09:47;100822.41;;;10.01;100.00
61119;BME280;51448;51.660;5.824;2023-12-28T04:12:15;100839.97;;;9.99;100.00
61119;BME280;51448;51.660;5.824;2023-12-28T04:14:42;100831.31;;;9.95;100.00
61119;BME280;51448;51.660;5.824;2023-12-28T04:17:11;100841.00;;;9.93;100.00
61119;BME280;51448;51.660;5.824;2023-12-28T04:19:39;100841.94;;;9.91;100.00
61119;BME280;51448;51.660;5.824;2023-12-28T04:22:07;100835.88;;;9.87;100.00
61119;BME280;51448;51.660;5.824;2023-12-28T04:24:34;100832.44;;;9.85;100.00
61119;BME280;51448;51.660;5.824;2023-12-28T04:27:03;100832.47;;;9.83;100.00
61119;BME280;51448;51.660;5.824;2023-12-28T04:29:31;100833.28;;;9.85;100.00
61119;BME280;51448;51.660;5.824;2023-12-28T04:31:59;100833.25;;;9.87;100.00
61119;BME280;51448;51.660;5.824;2023-12-28T04:34:27;100842.09;;;9.84;100.00
61119;BME280;51448;51.660;5.824;2023-12-28T04:36:55;100835.91;;;9.85;100.00
61119;BME280;51448;51.660;5.824;2023-12-28T04:39:22;100842.09;;;9.84;100.00
61119;BME280;51448;51.660;5.824;2023-12-28T04:41:52;100829.78;;;9.86;100.00
61119;BME280;51448;51.660;5.824;2023-12-28T04:44:21;100829.72;;;9.88;100.00
61119;BME280;51448;51.660;5.824;2023-12-28T04:46:48;100832.34;;;9.88;100.00
61119;BME280;51448;51.660;5.824;2023-12-28T04:49:16;100832.34;;;9.88;100.00
61119;BME280;51448;51.660;5.824;2023-12-28T04:51:44;100820.94;;;9.89;100.00
61119;BME280;51448;51.660;5.824;2023-12-28T04:54:12;100830.53;;;9.90;100.00
61119;BME280;51448;51.660;5.824;2023-12-28T04:56:40;100832.34;;;9.88;100.00
61119;BME280;51448;51.660;5.824;2023-12-28T04:59:07;100827.91;;;9.90;100.00
61119;BME280;51448;51.660;5.824;2023-12-28T05:01:40;100835.78;;;9.90;100.00
61119;BME280;51448;51.660;5.824;2023-12-28T05:04:09;100852.44;;;9.91;100.00
61119;BME280;51448;51.660;5.824;2023-12-28T05:06:44;100841.84;;;9.94;100.00
61119;BME280;51448;51.660;5.824;2023-12-28T05:09:14;100844.44;;;9.95;100.00
61119;BME280;51448;51.660;5.824;2023-12-28T05:11:42;100852.28;;;9.97;100.00
61119;BME280;51448;51.660;5.824;2023-12-28T05:14:10;100848.75;;;9.98;100.00
61119;BME280;51448;51.660;5.824;2023-12-28T05:16:38;100860.06;;;10.01;100.00
61119;BME280;51448;51.660;5.824;2023-12-28T05:19:06;100850.34;;;10.05;100.00
61119;BME280;51448;51.660;5.824;2023-12-28T05:21:34;100861.69;;;10.05;100.00
61119;BME280;51448;51.660;5.824;2023-12-28T05:24:01;100870.25;;;10.14;100.00
61119;BME280;51448;51.660;5.824;2023-12-28T05:26:29;100870.13;;;10.18;100.00
61119;BME280;51448;51.660;5.824;2023-12-28T05:28:57;100869.94;;;10.26;100.00
61119;BME280;51448;51.660;5.824;2023-12-28T05:31:24;100883.78;;;10.34;100.00
61119;BME280;51448;51.660;5.824;2023-12-28T05:33:53;100882.69;;;10.41;100.00
61119;BME280;51448;51.660;5.824;2023-12-28T05:36:21;100873.75;;;10.49;100.00
61119;BME280;51448;51.660;5.824;2023-12-28T05:38:48;100871.09;;;10.50;100.00
61119;BME280;51448;51.660;5.824;2023-12-28T05:41:16;100871.03;;;10.52;100.00
61119;BME280;51448;51.660;5.824;2023-12-28T05:43:47;100869.31;;;10.51;100.00
61119;BME280;51448;51.660;5.824;2023-12-28T05:46:15;100866.75;;;10.47;100.00
61119;BME280;51448;51.660;5.824;2023-12-28T05:48:42;100856.28;;;10.46;100.00
61119;BME280;51448;51.660;5.824;2023-12-28T05:51:10;100864.28;;;10.41;100.00
61119;BME280;51448;51.660;5.824;2023-12-28T05:53:37;100866.09;;;10.39;100.00
61119;BME280;51448;51.660;5.824;2023-12-28T05:56:08;100862.59;;;10.39;100.00
61119;BME280;51448;51.660;5.824;2023-12-28T05:58:35;100882.69;;;10.41;100.00
61119;BME280;51448;51.660;5.824;2023-12-28T06:01:04;100876.53;;;10.42;100.00
61119;BME280;51448;51.660;5.824;2023-12-28T06:03:35;100880.81;;;10.46;100.00
61119;BME280;51448;51.660;5.824;2023-12-28T06:06:02;100900.13;;;10.45;100.00
61119;BME280;51448;51.660;5.824;2023-12-28T06:08:30;100872.94;;;10.46;100.00
61119;BME280;51448;51.660;5.824;2023-12-28T06:10:58;100863.22;;;10.49;100.00
61119;BME280;51448;51.660;5.824;2023-12-28T06:13:25;100847.31;;;10.53;100.00
61119;BME280;51448;51.660;5.824;2023-12-28T06:15:53;100874.38;;;10.58;100.00
61119;BME280;51448;51.660;5.824;2023-12-28T06:18:21;100881.31;;;10.61;100.00
61119;BME280;51448;51.660;5.824;2023-12-28T06:20:49;100878.56;;;10.64;100.00
61119;BME280;51448;51.660;5.824;2023-12-28T06:23:16;100877.72;;;10.63;100.00
61119;BME280;51448;51.660;5.824;2023-12-28T06:25:44;100885.53;;;10.66;100.00
61119;BME280;51448;51.660;5.824;2023-12-28T06:28:12;100890.84;;;10.65;100.00
61119;BME280;51448;51.660;5.824;2023-12-28T06:30:39;100892.63;;;10.64;100.00
61119;BME280;51448;51.660;5.824;2023-12-28T06:33:07;100911.78;;;10.68;100.00
61119;BME280;51448;51.660;5.824;2023-12-28T06:35:35;100899.44;;;10.70;100.00
61119;BME280;51448;51.660;5.824;2023-12-28T06:38:02;100895.91;;;10.73;100.00
61119;BME280;51448;51.660;5.824;2023-12-28T06:40:30;100894.13;;;10.73;100.00
61119;BME280;51448;51.660;5.824;2023-12-28T06:42:59;100904.59;;;10.75;100.00
61119;BME280;51448;51.660;5.824;2023-12-28T06:45:26;100894.94;;;10.75;100.00
61119;BME280;51448;51.660;5.824;2023-12-28T06:47:56;100918.63;;;10.75;100.00
61119;BME280;51448;51.660;5.824;2023-12-28T06:50:24;100909.81;;;10.76;100.00
61119;BME280;51448;51.660;5.824;2023-12-28T06:52:51;100911.44;;;10.80;99.84
61119;BME280;51448;51.660;5.824;2023-12-28T06:55:20;100901.81;;;10.81;99.97
61119;BME280;51448;51.660;5.824;2023-12-28T06:57:47;100912.34;;;10.81;100.00
61119;BME280;51448;51.660;5.824;2023-12-28T07:00:15;100895.66;;;10.80;99.65
61119;BME280;51448;51.660;5.824;2023-12-28T07:02:43;100910.69;;;10.77;99.82
61119;BME280;51448;51.660;5.824;2023-12-28T07:05:11;100908.09;;;10.75;100.00
61119;BME280;51448;51.660;5.824;2023-12-28T07:07:41;100909.09;;;10.71;100.00
61119;BME280;51448;51.660;5.824;2023-12-28T07:10:09;100907.34;;;10.70;100.00
61119;BME280;51448;51.660;5.824;2023-12-28T07:12:36;100908.25;;;10.69;100.00
61119;BME280;51448;51.660;5.824;2023-12-28T07:15:04;100913.53;;;10.69;99.33
61119;BME280;51448;51.660;5.824;2023-12-28T07:17:32;100919.66;;;10.68;99.80
61119;BME280;51448;51.660;5.824;2023-12-28T07:19:59;100927.66;;;10.65;100.00
61119;BME280;51448;51.660;5.824;2023-12-28T07:22:27;100931.19;;;10.64;100.00
61119;BME280;51448;51.660;5.824;2023-12-28T07:24:55;100935.56;;;10.65;100.00
61119;BME280;51448;51.660;5.824;2023-12-28T07:27:23;100932.00;;;10.66;100.00
61119;BME280;51448;51.660;5.824;2023-12-28T07:29:50;100934.69;;;10.64;100.00
61119;BME280;51448;51.660;5.824;2023-12-28T07:32:18;100934.75;;;10.61;100.00
61119;BME280;51448;51.660;5.824;2023-12-28T07:34:47;100942.63;;;10.63;100.00
61119;BME280;51448;51.660;5.824;2023-12-28T07:37:15;100934.72;;;10.63;100.00
61119;BME280;51448;51.660;5.824;2023-12-28T07:39:43;100927.69;;;10.63;100.00
61119;BME280;51448;51.660;5.824;2023-12-28T07:42:11;100943.44;;;10.65;99.75
61119;BME280;51448;51.660;5.824;2023-12-28T07:44:39;100949.59;;;10.64;99.95
61119;BME280;51448;51.660;5.824;2023-12-28T07:47:07;100949.69;;;10.61;100.00
61119;BME280;51448;51.660;5.824;2023-12-28T07:49:36;100954.13;;;10.59;100.00
61119;BME280;51448;51.660;5.824;2023-12-28T07:52:04;100961.19;;;10.57;100.00
61119;BME280;51448;51.660;5.824;2023-12-28T07:54:32;100958.63;;;10.54;100.00
61119;BME280;51448;51.660;5.824;2023-12-28T07:57:00;100959.50;;;10.54;100.00
61119;BME280;51448;51.660;5.824;2023-12-28T07:59:27;100953.28;;;10.58;100.00
61119;BME280;51448;51.660;5.824;2023-12-28T08:01:56;100963.72;;;10.60;100.00
61119;BME280;51448;51.660;5.824;2023-12-28T08:04:24;100975.19;;;10.57;100.00
61119;BME280;51448;51.660;5.824;2023-12-28T08:06:51;100976.06;;;10.58;100.00
61119;BME280;51448;51.660;5.824;2023-12-28T08:09:19;100985.66;;;10.60;100.00
61119;BME280;51448;51.660;5.824;2023-12-28T08:11:47;100983.06;;;10.59;100.00
61119;BME280;51448;51.660;5.824;2023-12-28T08:14:16;100989.16;;;10.59;100.00
61119;BME280;51448;51.660;5.824;2023-12-28T08:16:43;100991.78;;;10.61;100.00
61119;BME280;51448;51.660;5.824;2023-12-28T08:19:11;101002.16;;;10.65;100.00
61119;BME280;51448;51.660;5.824;2023-12-28T08:21:39;101000.34;;;10.67;100.00
61119;BME280;51448;51.660;5.824;2023-12-28T08:24:06;101008.25;;;10.67;100.00
61119;BME280;51448;51.660;5.824;2023-12-28T08:26:34;100999.38;;;10.72;100.00
61119;BME280;51448;51.660;5.824;2023-12-28T08:29:02;101006.38;;;10.73;100.00
61119;BME280;51448;51.660;5.824;2023-12-28T08:31:30;100995.78;;;10.74;100.00
61119;BME280;51448;51.660;5.824;2023-12-28T08:33:58;100986.09;;;10.76;100.00
61119;BME280;51448;51.660;5.824;2023-12-28T08:36:25;100985.25;;;10.76;100.00
61119;BME280;51448;51.660;5.824;2023-12-28T08:38:53;100982.53;;;10.79;100.00
61119;BME280;51448;51.660;5.824;2023-12-28T08:41:27;100976.22;;;10.84;100.00
61119;BME280;51448;51.660;5.824;2023-12-28T08:43:55;100985.06;;;10.82;100.00
61119;BME280;51448;51.660;5.824;2023-12-28T08:46:25;100993.94;;;10.79;100.00
61119;BME280;51448;51.660;5.824;2023-12-28T08:48:52;100985.06;;;10.82;100.00
61119;BME280;51448;51.660;5.824;2023-12-28T08:51:21;100992.94;;;10.83;100.00
61119;BME280;51448;51.660;5.824;2023-12-28T08:53:49;100991.16;;;10.84;100.00
61119;BME280;51448;51.660;5.824;2023-12-28T08:56:19;100999.03;;;10.85;100.00
61119;BME280;51448;51.660;5.824;2023-12-28T08:58:48;101001.53;;;10.90;100.00
61119;BME280;51448;51.660;5.824;2023-12-28T09:01:18;101025.25;;;10.88;100.00
61119;BME280;51448;51.660;5.824;2023-12-28T09:03:49;101019.94;;;10.90;100.00
61119;BME280;51448;51.660;5.824;2023-12-28T09:06:19;101033.06;;;10.92;100.00
61119;BME280;51448;51.660;5.824;2023-12-28T09:08:51;101023.44;;;10.91;100.00
61119;BME280;51448;51.660;5.824;2023-12-28T09:11:19;101040.09;;;10.91;100.00
61119;BME280;51448;51.660;5.824;2023-12-28T09:13:49;101036.59;;;10.91;100.00
61119;BME280;51448;51.660;5.824;2023-12-28T09:16:16;101045.38;;;10.91;100.00
61119;BME280;51448;51.660;5.824;2023-12-28T09:18:45;101042.69;;;10.93;100.00
61119;BME280;51448;51.660;5.824;2023-12-28T09:21:13;101045.41;;;10.90;100.00
61119;BME280;51448;51.660;5.824;2023-12-28T09:23:41;101043.59;;;10.92;99.94
61119;BME280;51448;51.660;5.824;2023-12-28T09:26:08;101055.84;;;10.93;99.53
61119;BME280;51448;51.660;5.824;2023-12-28T09:28:36;101056.72;;;10.93;99.75
61119;BME280;51448;51.660;5.824;2023-12-28T09:31:04;101055.84;;;10.93;99.97
61119;BME280;51448;51.660;5.824;2023-12-28T09:33:32;101057.56;;;10.94;99.86
61119;BME280;51448;51.660;5.824;2023-12-28T09:36:03;101056.66;;;10.95;99.26
61119;BME280;51448;51.660;5.824;2023-12-28T09:38:31;101053.19;;;10.93;99.81
61119;BME280;51448;51.660;5.824;2023-12-28T09:41:06;101050.56;;;10.93;100.00
61119;BME280;51448;51.660;5.824;2023-12-28T09:46:22;101056.59;;;10.98;99.33
61119;BME280;51448;51.660;5.824;2023-12-28T09:48:49;101062.72;;;10.98;99.53
61119;BME280;51448;51.660;5.824;2023-12-28T09:51:19;101060.88;;;11.02;99.04
61119;BME280;51448;51.660;5.824;2023-12-28T09:53:47;101062.53;;;11.06;97.60
61119;BME280;51448;51.660;5.824;2023-12-28T09:56:15;101052.00;;;11.06;98.04
61119;BME280;51448;51.660;5.824;2023-12-28T09:58:44;101060.72;;;11.08;98.11
61119;BME280;51448;51.660;5.824;2023-12-28T10:01:14;101074.69;;;11.10;98.53
61119;BME280;51448;51.660;5.824;2023-12-28T10:03:42;101067.63;;;11.12;98.43
61119;BME280;51448;51.660;5.824;2023-12-28T10:06:10;101062.22;;;11.17;97.17
61119;BME280;51448;51.660;5.824;2023-12-28T10:08:45;101064.97;;;11.14;97.50
61119;BME280;51448;51.660;5.824;2023-12-28T10:11:16;101072.84;;;11.14;97.44
61119;BME280;51448;51.660;5.824;2023-12-28T10:13:45;101078.06;;;11.15;97.06
61119;BME280;51448;51.660;5.824;2023-12-28T10:16:13;101074.53;;;11.16;97.03
61119;BME280;51448;51.660;5.824;2023-12-28T10:18:44;101076.31;;;11.16;97.72
61119;BME280;51448;51.660;5.824;2023-12-28T10:21:12;101074.59;;;11.13;97.99
61119;BME280;51448;51.660;5.824;2023-12-28T10:23:40;101074.53;;;11.16;97.49
61119;BME280;51448;51.660;5.824;2023-12-28T10:26:08;101081.59;;;11.14;98.38
61119;BME280;51448;51.660;5.824;2023-12-28T10:28:36;101071.06;;;11.14;97.99
61119;BME280;51448;51.660;5.824;2023-12-28T10:31:05;101076.25;;;11.17;97.94
61119;BME280;51448;51.660;5.824;2023-12-28T10:33:36;101082.44;;;11.16;98.34
61119;BME280;51448;51.660;5.824;2023-12-28T10:36:07;101077.22;;;11.13;99.18
61119;BME280;51448;51.660;5.824;2023-12-28T10:38:37;101068.44;;;11.14;99.62
61119;BME280;51448;51.660;5.824;2023-12-28T10:41:09;101062.34;;;11.12;99.76
61119;BME280;51448;51.660;5.824;2023-12-28T10:46:31;101064.00;;;11.16;100.00
61119;BME280;51448;51.660;5.824;2023-12-28T10:49:07;101055.28;;;11.14;99.92
61119;BME280;51448;51.660;5.824;2023-12-28T10:51:42;101063.97;;;11.18;100.00
61119;BME280;51448;51.660;5.824;2023-12-28T10:57:28;101071.91;;;11.16;100.00
61119;BME280;51448;51.660;5.824;2023-12-28T11:00:07;101071.81;;;11.19;100.00
61119;BME280;51448;51.660;5.824;2023-12-28T11:02:42;101062.22;;;11.17;100.00
61119;BME280;51448;51.660;5.824;2023-12-28T11:05:15;101056.09;;;11.16;100.00
61119;BME280;51448;51.660;5.824;2023-12-28T11:07:45;101041.13;;;11.18;100.00
61119;BME280;51448;51.660;5.824;2023-12-28T11:10:16;101045.47;;;11.19;100.00
61119;BME280;51448;51.660;5.824;2023-12-28T11:12:46;101044.47;;;11.23;100.00
61119;BME280;51448;51.660;5.824;2023-12-28T11:15:15;101049.69;;;11.26;100.00
61119;BME280;51448;51.660;5.824;2023-12-28T11:17:44;101042.59;;;11.28;100.00
61119;BME280;51448;51.660;5.824;2023-12-28T11:20:12;101038.97;;;11.33;100.00
61119;BME280;51448;51.660;5.824;2023-12-28T11:22:41;101035.34;;;11.37;100.00
61119;BME280;51448;51.660;5.824;2023-12-28T11:25:16;101040.44;;;11.43;99.31
61119;BME280;51448;51.660;5.824;2023-12-28T11:27:46;101036.03;;;11.43;99.65
61119;BME280;51448;51.660;5.824;2023-12-28T11:30:25;101027.25;;;11.44;99.30
61119;BME280;51448;51.660;5.824;2023-12-28T11:32:59;101027.16;;;11.47;98.30
61119;BME280;51448;51.660;5.824;2023-12-28T11:35:38;101025.38;;;11.48;98.07
61119;BME280;51448;51.660;5.824;2023-12-28T11:38:09;101028.00;;;11.48;97.83
61119;BME280;51448;51.660;5.824;2023-12-28T11:40:42;101027.09;;;11.49;97.19
61119;BME280;51448;51.660;5.824;2023-12-28T11:43:15;101015.72;;;11.48;97.46
61119;BME280;51448;51.660;5.824;2023-12-28T11:45:48;101012.19;;;11.48;97.64
61119;BME280;51448;51.660;5.824;2023-12-28T11:48:26;101014.81;;;11.48;97.23
61119;BME280;51448;51.660;5.824;2023-12-28T11:50:58;100999.00;;;11.50;97.06
61119;BME280;51448;51.660;5.824;2023-12-28T11:53:26;101005.94;;;11.52;96.21
61119;BME280;51448;51.660;5.824;2023-12-28T11:56:01;100996.31;;;11.51;95.78
61119;BME280;51448;51.660;5.824;2023-12-28T11:58:34;101005.94;;;11.52;95.12
61119;BME280;51448;51.660;5.824;2023-12-28T12:01:05;101004.22;;;11.51;94.80
61119;BME280;51448;51.660;5.824;2023-12-28T12:03:33;100995.41;;;11.52;94.25
61119;BME280;51448;51.660;5.824;2023-12-28T12:06:01;100989.41;;;11.47;94.47
61119;BME280;51448;51.660;5.824;2023-12-28T12:08:28;100990.28;;;11.47;94.51
61119;BME280;51448;51.660;5.824;2023-12-28T12:11:01;100986.81;;;11.45;94.46
61119;BME280;51448;51.660;5.824;2023-12-28T12:13:31;100983.41;;;11.42;94.87
61119;BME280;51448;51.660;5.824;2023-12-28T12:15:59;100982.56;;;11.41;94.90
61119;BME280;51448;51.660;5.824;2023-12-28T12:18:33;100983.53;;;11.37;95.25
61119;BME280;51448;51.660;5.824;2023-12-28T12:21:02;100977.41;;;11.37;95.52
61119;BME280;51448;51.660;5.824;2023-12-28T12:23:30;100980.91;;;11.37;95.42
61119;BME280;51448;51.660;5.824;2023-12-28T12:25:58;100978.22;;;11.40;94.51
61119;BME280;51448;51.660;5.824;2023-12-28T12:28:25;100985.31;;;11.37;95.54
61119;BME280;51448;51.660;5.824;2023-12-28T12:30:54;100972.16;;;11.37;95.26
61119;BME280;51448;51.660;5.824;2023-12-28T12:33:27;100962.47;;;11.37;95.67
61119;BME280;51448;51.660;5.824;2023-12-28T12:35:55;100961.63;;;11.37;95.65
61119;BME280;51448;51.660;5.824;2023-12-28T12:38:23;100972.16;;;11.37;95.63
61119;BME280;51448;51.660;5.824;2023-12-28T12:40:51;100968.66;;;11.36;95.59
61119;BME280;51448;51.660;5.824;2023-12-28T12:43:20;100968.75;;;11.33;96.20
61119;BME280;51448;51.660;5.824;2023-12-28T12:45:51;100961.81;;;11.31;96.18
61119;BME280;51448;51.660;5.824;2023-12-28T12:48:19;100961.81;;;11.31;96.33
61119;BME280;51448;51.660;5.824;2023-12-28T12:50:47;100960.88;;;11.32;96.54
61119;BME280;51448;51.660;5.824;2023-12-28T12:53:16;100958.25;;;11.32;95.98
61119;BME280;51448;51.660;5.824;2023-12-28T12:55:43;100966.22;;;11.30;96.03
61119;BME280;51448;51.660;5.824;2023-12-28T12:58:14;100952.97;;;11.32;95.93
61119;BME280;51448;51.660;5.824;2023-12-28T13:00:45;100958.34;;;11.28;96.19
61119;BME280;51448;51.660;5.824;2023-12-28T13:03:13;100952.22;;;11.28;96.12
61119;BME280;51448;51.660;5.824;2023-12-28T13:05:41;100967.13;;;11.27;96.65